Time;durP1;ratioP1;P1;durP2;ratioP2;P2;SDS_P1;SDS_P2;PMS_P1;PMS_P2;Temp;Humidity;BMP_temperature;BMP_pressure;BME280_temperature;BME280_humidity;BME280_pressure;Samples;Min_cycle;Max_cycle;Signal;HPM_P1;HPM_P2
2022/01/20 00:01:45;;;;;;;35.72;17.35;;;0.70;70.80;;;;;;5058815;28;20043;-38
2022/01/20 06:04:35;;;;;;;31.52;15.77;;;0.00;72.10;;;;;;5026011;28;20159;-32
2022/01/20 06:07:01;;;;;;;35.67;16.13;;;0.00;72.40;;;;;;5036390;28;20029;-32
2022/01/20 06:09:26;;;;;;;34.45;17.60;;;0.00;72.40;;;;;;5034782;28;20159;-32
2022/01/20 06:11:52;;;;;;;38.28;17.20;;;0.10;72.60;;;;;;5036256;28;20033;-33
2022/01/20 06:14:18;;;;;;;40.90;18.52;;;0.10;72.60;;;;;;5036146;28;20049;-32
2022/01/20 06:16:43;;;;;;;41.83;18.95;;;0.20;72.60;;;;;;5035909;28;20044;-32
2022/01/20 06:19:09;;;;;;;34.33;16.58;;;0.20;72.50;;;;;;5035863;28;20038;-32
2022/01/20 06:21:35;;;;;;;40.50;16.33;;;0.30;72.50;;;;;;5035776;28;20068;-32
2022/01/20 06:24:01;;;;;;;33.58;15.68;;;0.30;72.40;;;;;;5035974;28;20060;-38
2022/01/20 06:26:26;;;;;;;42.83;18.00;;;0.30;72.20;;;;;;5035809;28;20176;-38
2022/01/20 06:28:52;;;;;;;39.00;17.55;;;0.30;72.30;;;;;;5036170;28;20055;-38
2022/01/20 06:31:17;;;;;;;33.83;16.65;;;0.30;72.40;;;;;;5035769;28;20037;-38
2022/01/20 06:33:43;;;;;;;33.63;16.17;;;0.30;72.30;;;;;;5036029;28;20425;-38
2022/01/20 06:36:09;;;;;;;37.65;18.80;;;0.40;72.10;;;;;;5035415;28;20578;-38
2022/01/20 06:38:35;;;;;;;39.05;17.52;;;0.40;72.10;;;;;;5035643;28;20040;-33
2022/01/20 06:41:00;;;;;;;34.88;17.58;;;0.40;72.20;;;;;;5035281;28;20040;-32
2022/01/20 06:43:28;;;;;;;34.13;17.45;;;0.40;72.10;;;;;;5035981;28;20041;-32
2022/01/20 06:45:53;;;;;;;38.55;19.17;;;0.40;72.20;;;;;;5035708;28;20039;-33
2022/01/20 06:48:19;;;;;;;38.50;18.73;;;0.40;72.20;;;;;;5035980;28;20029;-33
2022/01/20 06:50:45;;;;;;;38.20;19.35;;;0.40;72.20;;;;;;5035149;28;20078;-32
2022/01/20 06:53:11;;;;;;;42.63;18.17;;;0.40;72.20;;;;;;5035818;28;20376;-32
2022/01/20 06:55:36;;;;;;;39.65;18.80;;;0.40;72.30;;;;;;5035361;28;20114;-39
2022/01/20 06:58:02;;;;;;;35.78;17.58;;;0.40;72.30;;;;;;5035434;28;20030;-32
2022/01/20 07:00:28;;;;;;;36.00;17.20;;;0.40;72.40;;;;;;5035616;28;20038;-38
2022/01/20 07:02:53;;;;;;;37.20;16.95;;;0.40;72.40;;;;;;5035664;28;20061;-33
2022/01/20 07:05:21;;;;;;;35.22;17.00;;;0.40;72.60;;;;;;5037564;28;20136;-38
2022/01/20 07:07:46;;;;;;;36.83;17.00;;;0.40;72.40;;;;;;5039518;28;20428;-32
2022/01/20 07:10:19;;;;;;;37.33;18.00;;;0.50;72.50;;;;;;5039665;28;20038;-38
2022/01/20 07:12:46;;;;;;;45.50;24.63;;;0.50;72.50;;;;;;5038413;28;20036;-32
2022/01/20 07:15:13;;;;;;;38.83;19.63;;;0.50;72.20;;;;;;5039475;28;20322;-38
2022/01/20 07:17:40;;;;;;;41.47;22.30;;;0.50;72.20;;;;;;5039626;28;20036;-39
2022/01/20 07:20:07;;;;;;;35.05;17.05;;;0.50;72.10;;;;;;5039380;28;20045;-38
2022/01/20 07:22:33;;;;;;;43.22;20.48;;;0.50;72.10;;;;;;5039477;28;20032;-38
2022/01/20 07:24:58;;;;;;;39.85;18.40;;;0.40;72.20;;;;;;5039034;28;20041;-39
2022/01/20 07:27:24;;;;;;;34.88;17.35;;;0.40;72.30;;;;;;5039016;28;20049;-33
2022/01/20 07:29:50;;;;;;;27.17;14.20;;;0.40;72.30;;;;;;5039190;28;20026;-32
2022/01/20 07:32:15;;;;;;;28.38;14.90;;;0.40;72.40;;;;;;5038946;28;20124;-38
2022/01/20 07:34:41;;;;;;;33.30;16.08;;;0.40;72.40;;;;;;5039218;28;20064;-32
2022/01/20 07:37:07;;;;;;;32.47;15.57;;;0.40;72.40;;;;;;5038223;28;20056;-38
2022/01/20 07:39:33;;;;;;;31.95;15.13;;;0.40;72.40;;;;;;5039244;28;20414;-38
2022/01/20 07:41:59;;;;;;;35.58;16.98;;;0.50;72.50;;;;;;5039040;28;20033;-32
2022/01/20 07:44:24;;;;;;;42.97;20.17;;;0.50;72.40;;;;;;5037638;28;20376;-33
2022/01/20 07:46:50;;;;;;;36.85;17.80;;;0.50;72.30;;;;;;5038132;28;20033;-32
2022/01/20 07:49:16;;;;;;;36.30;17.05;;;0.50;72.30;;;;;;5058397;28;20029;-38
2022/01/20 07:51:43;;;;;;;36.25;16.02;;;0.50;72.30;;;;;;5058558;28;20020;-38
2022/01/20 07:54:09;;;;;;;32.90;14.73;;;0.50;72.10;;;;;;5058605;28;20108;-32
2022/01/20 07:56:34;;;;;;;34.80;14.77;;;0.50;72.10;;;;;;5057063;28;20132;-33
2022/01/20 07:59:00;;;;;;;33.03;16.33;;;0.50;72.10;;;;;;5058663;28;20025;-34
2022/01/20 08:01:26;;;;;;;28.92;15.05;;;0.60;72.20;;;;;;5057866;28;20033;-32
2022/01/20 08:03:53;;;;;;;28.70;14.43;;;0.60;72.20;;;;;;5057942;28;20190;-38
2022/01/20 08:06:19;;;;;;;26.30;13.35;;;0.60;72.10;;;;;;5058183;28;20029;-38
2022/01/20 08:08:46;;;;;;;27.75;13.88;;;0.60;72.10;;;;;;5058337;28;20033;-38
2022/01/20 08:11:12;;;;;;;27.95;13.18;;;0.70;72.00;;;;;;5057866;28;20025;-39
2022/01/20 08:13:38;;;;;;;29.40;14.10;;;0.70;72.00;;;;;;5058207;28;20071;-39
2022/01/20 08:16:04;;;;;;;29.02;14.13;;;0.70;71.90;;;;;;5057011;28;20479;-33
2022/01/20 08:18:30;;;;;;;34.78;15.07;;;0.80;71.70;;;;;;5056624;28;20036;-32
2022/01/20 08:20:55;;;;;;;31.10;13.95;;;0.80;71.70;;;;;;5057724;28;20037;-32
2022/01/20 08:23:21;;;;;;;29.23;14.95;;;0.80;71.60;;;;;;5057492;28;20123;-39
2022/01/20 08:25:47;;;;;;;28.13;14.10;;;0.90;71.60;;;;;;5057284;28;20029;-39
2022/01/20 08:28:13;;;;;;;31.58;14.90;;;0.90;71.70;;;;;;5057651;28;20044;-38
2022/01/20 08:30:41;;;;;;;27.33;13.02;;;1.00;71.60;;;;;;5057542;28;20028;-32
2022/01/20 08:33:07;;;;;;;30.85;14.30;;;1.00;71.30;;;;;;5057928;28;20025;-39
2022/01/20 08:35:33;;;;;;;28.65;14.25;;;1.10;71.20;;;;;;5055141;28;20029;-39
2022/01/20 08:38:00;;;;;;;31.20;13.55;;;1.10;71.00;;;;;;5057533;28;20029;-39
2022/01/20 08:40:26;;;;;;;28.33;13.52;;;1.10;70.60;;;;;;5057013;28;20059;-39
2022/01/20 08:42:54;;;;;;;28.73;13.48;;;1.10;70.60;;;;;;5057722;28;20033;-38
2022/01/20 08:45:24;;;;;;;28.20;13.63;;;1.10;70.80;;;;;;5056904;28;20033;-32
2022/01/20 08:47:54;;;;;;;30.02;14.38;;;1.20;70.70;;;;;;5057637;28;20025;-33
2022/01/20 08:50:20;;;;;;;28.70;14.35;;;1.20;70.90;;;;;;5057040;28;20123;-38
2022/01/20 08:52:47;;;;;;;25.90;13.43;;;1.20;71.00;;;;;;5057555;28;20032;-39
2022/01/20 08:55:12;;;;;;;30.42;14.27;;;1.30;71.00;;;;;;5057185;28;20098;-32
2022/01/20 08:57:38;;;;;;;28.00;14.40;;;1.40;70.70;;;;;;5057272;28;20040;-38
2022/01/20 09:00:08;;;;;;;26.55;14.27;;;1.50;70.80;;;;;;5056172;28;20029;-32
2022/01/20 09:02:33;;;;;;;31.55;14.63;;;1.60;70.80;;;;;;5057299;28;20033;-38
2022/01/20 09:05:00;;;;;;;39.20;15.05;;;1.70;70.70;;;;;;5056282;28;20049;-32
2022/01/20 09:07:26;;;;;;;31.40;14.60;;;1.80;70.80;;;;;;5057341;28;20094;-38
2022/01/20 09:09:55;;;;;;;32.83;14.25;;;1.90;70.00;;;;;;5057014;28;20362;-38
2022/01/20 09:17:45;;;;;;;29.95;14.95;;;2.20;69.30;;;;;;5056858;28;20036;-46
2022/01/20 09:20:11;;;;;;;28.10;15.05;;;2.20;69.00;;;;;;5056879;28;20147;-45
2022/01/20 09:22:37;;;;;;;30.23;14.93;;;2.20;68.70;;;;;;5057243;28;20025;-34
2022/01/20 09:25:05;;;;;;;27.88;14.20;;;2.20;68.30;;;;;;5056222;28;20040;-45
2022/01/20 09:27:31;;;;;;;28.58;14.60;;;2.20;68.40;;;;;;5056063;28;20309;-35
2022/01/20 09:29:56;;;;;;;31.08;14.43;;;2.10;68.30;;;;;;5056813;28;20033;-36
2022/01/20 09:32:25;;;;;;;29.38;14.00;;;2.10;68.20;;;;;;5056773;28;20027;-34
2022/01/20 09:34:51;;;;;;;28.25;13.82;;;2.00;68.20;;;;;;5055959;28;20033;-43
2022/01/20 09:37:17;;;;;;;33.90;13.30;;;2.00;68.40;;;;;;5056711;28;20320;-44
2022/01/20 09:39:43;;;;;;;27.17;13.63;;;2.00;68.50;;;;;;5056478;28;20124;-43
2022/01/20 09:42:09;;;;;;;31.27;14.52;;;2.00;68.60;;;;;;5056110;28;20052;-45
2022/01/20 09:44:35;;;;;;;28.08;13.15;;;1.90;68.60;;;;;;5055719;28;20043;-42
2022/01/20 09:47:01;;;;;;;30.40;13.73;;;1.90;68.60;;;;;;5055984;28;20032;-45
2022/01/20 09:49:27;;;;;;;25.23;13.30;;;1.90;68.50;;;;;;5056082;28;20028;-44
2022/01/20 09:51:52;;;;;;;29.00;14.38;;;1.90;68.90;;;;;;5056057;28;20032;-44
2022/01/20 09:54:19;;;;;;;30.38;13.77;;;1.90;69.00;;;;;;5056225;28;20453;-41
2022/01/20 09:56:44;;;;;;;28.63;13.70;;;1.90;68.80;;;;;;5055887;28;20048;-45
2022/01/20 09:59:11;;;;;;;30.00;14.75;;;1.90;68.60;;;;;;5056288;28;20065;-45
2022/01/20 10:01:44;;;;;;;29.48;13.77;;;1.80;68.70;;;;;;5056114;28;20025;-45
2022/01/20 10:04:24;;;;;;;30.63;15.68;;;1.80;68.70;;;;;;5055795;28;20049;-44
2022/01/20 10:07:04;;;;;;;37.17;16.33;;;1.80;68.90;;;;;;5055715;28;20021;-42
2022/01/20 10:09:44;;;;;;;25.98;13.43;;;1.80;69.10;;;;;;5055882;28;20037;-39
2022/01/20 10:12:14;;;;;;;30.85;14.05;;;1.80;69.00;;;;;;5056056;28;20096;-42
2022/01/20 10:14:48;;;;;;;33.50;14.88;;;1.80;69.30;;;;;;5056032;28;20041;-41
2022/01/20 10:17:20;;;;;;;32.90;15.55;;;1.80;69.20;;;;;;5055593;28;20162;-44
2022/01/20 10:19:50;;;;;;;38.40;16.52;;;1.80;69.40;;;;;;5056139;28;20032;-40
2022/01/20 10:22:21;;;;;;;29.35;14.95;;;1.80;69.50;;;;;;5055724;28;20036;-39
2022/01/20 10:25:05;;;;;;;;;;;1.80;69.20;;;;;;5056294;28;20041;-41
2022/01/20 10:27:44;;;;;;;32.22;15.73;;;1.80;69.00;;;;;;5056326;28;19948;-42
2022/01/20 10:30:11;;;;;;;32.90;15.32;;;1.80;69.00;;;;;;5055438;28;20056;-42
2022/01/20 10:32:43;;;;;;;31.20;14.55;;;1.70;69.10;;;;;;5055960;28;20483;-42
2022/01/20 10:35:12;;;;;;;30.42;15.23;;;1.70;69.30;;;;;;5055734;28;20037;-45
2022/01/20 10:37:52;;;;;;;35.80;16.88;;;1.60;69.50;;;;;;5055738;28;20029;-40
2022/01/20 10:40:18;;;;;;;27.92;14.25;;;1.60;69.90;;;;;;5055319;28;20037;-40
2022/01/20 10:42:46;;;;;;;35.72;15.80;;;1.60;69.90;;;;;;5055514;28;20033;-42
2022/01/20 10:45:29;;;;;;;35.63;16.83;;;1.60;69.80;;;;;;5055246;28;20041;-41
2022/01/20 10:47:57;;;;;;;41.72;18.48;;;1.60;70.00;;;;;;5055370;28;20029;-44
2022/01/20 10:50:29;;;;;;;39.97;18.08;;;1.60;70.20;;;;;;5054972;28;20028;-44
2022/01/20 10:52:55;;;;;;;38.17;18.35;;;1.60;70.30;;;;;;5054678;28;20036;-41
2022/01/20 10:55:33;;;;;;;38.95;17.58;;;1.60;70.10;;;;;;5055299;28;20029;-45
2022/01/20 10:58:15;;;;;;;30.98;15.27;;;1.60;70.30;;;;;;5055497;28;20123;-42
2022/01/20 11:00:44;;;;;;;37.55;17.13;;;1.50;70.00;;;;;;5055106;28;20082;-42
2022/01/20 11:03:09;;;;;;;31.27;15.82;;;1.50;69.90;;;;;;5054355;28;20032;-45
2022/01/20 11:05:35;;;;;;;36.08;16.05;;;1.50;70.60;;;;;;5054525;28;20067;-45
2022/01/20 11:08:01;;;;;;;38.90;16.95;;;1.50;70.00;;;;;;5055024;28;20031;-42
2022/01/20 11:10:27;;;;;;;29.42;15.65;;;1.50;70.10;;;;;;5055114;28;20116;-42
2022/01/20 11:12:53;;;;;;;32.67;17.48;;;1.60;70.40;;;;;;5055621;28;20065;-45
2022/01/20 11:15:20;;;;;;;30.40;14.95;;;1.60;69.80;;;;;;5055110;28;20374;-45
2022/01/20 11:17:52;;;;;;;36.13;15.05;;;1.70;69.40;;;;;;5054001;28;20029;-42
2022/01/20 11:20:25;;;;;;;28.55;13.98;;;1.70;69.10;;;;;;5055021;28;20098;-41
2022/01/20 11:22:56;;;;;;;30.02;14.75;;;1.80;68.80;;;;;;5055003;28;20093;-45
2022/01/20 11:25:24;;;;;;;28.52;14.90;;;1.80;69.10;;;;;;5051365;28;20041;-41
2022/01/20 11:28:09;;;;;;;28.60;14.60;;;1.80;69.00;;;;;;5055186;28;20087;-43
2022/01/20 11:30:39;;;;;;;27.40;14.10;;;1.90;68.70;;;;;;5054602;28;20139;-43
2022/01/20 11:33:07;;;;;;;24.50;13.20;;;1.90;68.30;;;;;;5055072;28;20367;-39
2022/01/20 11:35:44;;;;;;;33.35;14.52;;;2.00;68.20;;;;;;5054430;28;20032;-44
2022/01/20 11:38:12;;;;;;;28.20;14.65;;;2.00;68.10;;;;;;5054915;28;20131;-43
2022/01/20 11:40:58;;;;;;;28.20;13.45;;;2.10;67.50;;;;;;5054393;28;20025;-44
2022/01/20 11:43:44;;;;;;;30.65;13.43;;;2.10;67.40;;;;;;5054816;28;20041;-44
2022/01/20 11:46:13;;;;;;;25.73;13.13;;;2.20;67.10;;;;;;5054142;28;20025;-42
2022/01/20 11:48:53;;;;;;;26.52;14.38;;;2.30;66.90;;;;;;5055165;28;20345;-39
2022/01/20 11:51:20;;;;;;;26.52;13.52;;;2.40;67.00;;;;;;5056390;28;20044;-44
2022/01/20 11:54:03;;;;;;;28.77;12.10;;;2.50;66.50;;;;;;5058484;28;20040;-44
2022/01/20 11:56:38;;;;;;;23.67;11.90;;;2.50;65.40;;;;;;5057752;28;20037;-44
2022/01/20 11:59:08;;;;;;;22.10;11.55;;;2.60;65.40;;;;;;5058401;28;20025;-44
2022/01/20 12:02:03;;;;;;;22.98;10.70;;;2.70;65.00;;;;;;5058305;28;20266;-41
2022/01/20 12:04:33;;;;;;;23.30;11.60;;;2.80;64.30;;;;;;5057322;28;20385;-45
2022/01/20 12:06:59;;;;;;;21.13;11.23;;;2.80;63.60;;;;;;5058211;28;20081;-45
2022/01/20 12:09:36;;;;;;;20.38;11.48;;;2.90;63.80;;;;;;5058293;28;20117;-42
2022/01/20 12:12:21;;;;;;;20.52;11.93;;;2.90;63.50;;;;;;5058100;28;20075;-45
2022/01/20 12:14:46;;;;;;;26.45;11.57;;;2.90;63.40;;;;;;5058384;28;20033;-42
2022/01/20 12:17:17;;;;;;;24.63;12.75;;;3.00;63.10;;;;;;5058149;28;20028;-43
2022/01/20 12:19:47;;;;;;;27.45;12.95;;;3.00;63.10;;;;;;5058297;28;20033;-45
2022/01/20 12:22:13;;;;;;;31.10;13.50;;;3.00;63.10;;;;;;5058235;28;20028;-42
2022/01/20 12:24:52;;;;;;;24.38;11.98;;;3.00;63.20;;;;;;5057941;28;20059;-45
2022/01/20 12:27:23;;;;;;;27.52;11.93;;;3.00;63.10;;;;;;5057543;28;20441;-42
2022/01/20 12:29:49;;;;;;;21.00;10.45;;;3.00;62.90;;;;;;5057962;28;20116;-45
2022/01/20 12:32:17;;;;;;;22.48;11.65;;;3.00;62.70;;;;;;5057861;28;20025;-35
2022/01/20 12:34:43;;;;;;;19.65;10.02;;;3.10;62.80;;;;;;5057597;28;20384;-44
2022/01/20 12:37:10;;;;;;;18.45;10.55;;;3.10;62.90;;;;;;5057519;28;20024;-44
2022/01/20 12:39:39;;;;;;;17.02;9.20;;;3.10;62.80;;;;;;5057733;28;20106;-45
2022/01/20 12:42:10;;;;;;;17.90;9.65;;;3.10;62.50;;;;;;5057688;28;20323;-44
2022/01/20 12:45:02;;;;;;;18.70;9.38;;;3.10;62.60;;;;;;5057740;28;20041;-41
2022/01/20 12:47:29;;;;;;;15.05;8.13;;;3.10;62.50;;;;;;5057746;28;20328;-45
2022/01/20 12:49:56;;;;;;;17.50;10.60;;;3.10;62.30;;;;;;5057598;28;20116;-44
2022/01/20 12:52:23;;;;;;;18.63;8.88;;;3.10;62.50;;;;;;5057449;28;20021;-44
2022/01/20 12:54:50;;;;;;;21.35;10.15;;;3.00;62.40;;;;;;5057493;28;20033;-42
2022/01/20 12:57:17;;;;;;;19.52;8.60;;;3.10;62.60;;;;;;5057658;28;20205;-40
2022/01/20 12:59:44;;;;;;;16.67;8.95;;;3.10;62.60;;;;;;5057645;28;20055;-36
2022/01/20 13:02:15;;;;;;;17.42;7.82;;;3.10;62.60;;;;;;5057182;28;20124;-41
2022/01/20 13:04:41;;;;;;;17.27;8.88;;;3.00;62.60;;;;;;5057072;28;20057;-44
2022/01/20 13:07:10;;;;;;;19.00;9.30;;;3.10;62.60;;;;;;5056126;28;20435;-44
2022/01/20 13:09:59;;;;;;;17.88;9.10;;;3.10;62.60;;;;;;5057020;28;20037;-44
2022/01/20 13:12:40;;;;;;;14.15;8.13;;;3.10;62.60;;;;;;5057276;28;20029;-36
2022/01/20 13:15:26;;;;;;;;;;;3.10;62.90;;;;;;5057480;28;21487;-44
2022/01/20 13:18:05;;;;;;;19.50;9.35;;;3.10;62.70;;;;;;5055827;28;19904;-44
2022/01/20 13:20:31;;;;;;;15.30;8.45;;;3.10;62.40;;;;;;5056705;28;20063;-44
2022/01/20 13:23:09;;;;;;;24.85;13.68;;;3.00;62.30;;;;;;5057130;28;20025;-44
2022/01/20 13:25:40;;;;;;;18.65;9.32;;;3.00;62.50;;;;;;5056773;28;20029;-36
2022/01/20 13:28:11;;;;;;;17.80;8.95;;;3.00;62.40;;;;;;5056961;28;20033;-44
2022/01/20 13:30:47;;;;;;;19.90;8.70;;;2.90;62.40;;;;;;5056917;28;20112;-40
2022/01/20 13:33:18;;;;;;;19.73;8.88;;;2.90;62.50;;;;;;5057207;28;20329;-39
2022/01/20 13:35:45;;;;;;;;;;;2.90;62.50;;;;;;5057182;28;20032;-44
2022/01/20 13:38:11;;;;;;;18.05;9.23;;;2.80;62.60;;;;;;5056514;28;19905;-44
2022/01/20 13:40:39;;;;;;;19.30;9.95;;;2.80;62.70;;;;;;5056645;28;20087;-35
2022/01/20 13:45:39;;;;;;;18.38;8.85;;;2.70;62.80;;;;;;5056223;28;20067;-44
2022/01/20 13:48:06;;;;;;;20.40;9.50;;;2.70;62.80;;;;;;5056403;28;20030;-35
2022/01/20 13:50:54;;;;;;;18.08;9.50;;;2.70;62.90;;;;;;5056009;28;20099;-40
2022/01/20 13:53:23;;;;;;;18.73;9.75;;;2.60;62.90;;;;;;5056569;28;20093;-44
2022/01/20 13:55:49;;;;;;;18.40;9.52;;;2.60;63.10;;;;;;5056128;28;20028;-38
2022/01/20 13:58:29;;;;;;;20.77;9.35;;;2.50;63.30;;;;;;5056458;28;20037;-44
2022/01/20 14:00:57;;;;;;;20.80;10.52;;;2.50;63.60;;;;;;5055950;28;20048;-40
2022/01/20 14:03:23;;;;;;;18.58;10.10;;;2.40;63.80;;;;;;5056084;28;20310;-44
2022/01/20 14:05:52;;;;;;;17.10;9.93;;;2.30;63.80;;;;;;5055594;28;20052;-44
2022/01/20 14:08:18;;;;;;;23.55;11.18;;;2.30;64.00;;;;;;5055501;28;20398;-37
2022/01/20 14:10:44;;;;;;;18.00;9.98;;;2.30;64.30;;;;;;5055516;28;20021;-37
2022/01/20 14:13:10;;;;;;;18.38;10.35;;;2.20;64.40;;;;;;5055669;28;20114;-37
2022/01/20 14:15:36;;;;;;;19.42;10.02;;;2.20;64.50;;;;;;5055825;28;20105;-39
2022/01/20 14:18:02;;;;;;;22.52;10.90;;;2.20;64.50;;;;;;5053309;28;20040;-44
2022/01/20 14:20:30;;;;;;;19.33;10.07;;;2.10;64.70;;;;;;5054743;28;20481;-44
2022/01/20 14:23:00;;;;;;;18.08;10.82;;;2.00;64.60;;;;;;5055333;28;20116;-44
2022/01/20 14:25:26;;;;;;;20.10;9.27;;;2.00;64.70;;;;;;5054987;28;20025;-44
2022/01/20 14:27:54;;;;;;;17.20;9.20;;;1.90;64.90;;;;;;5055313;28;20414;-36
2022/01/20 14:30:21;;;;;;;21.02;10.77;;;1.90;65.00;;;;;;5055610;28;20044;-44
2022/01/20 14:32:46;;;;;;;19.02;10.43;;;1.80;65.10;;;;;;5055322;28;20314;-44
2022/01/20 14:35:12;;;;;;;20.73;9.98;;;1.80;65.30;;;;;;5055830;28;20044;-37
2022/01/20 14:37:39;;;;;;;21.38;9.70;;;1.80;66.00;;;;;;5055319;28;20359;-44
2022/01/20 14:40:10;;;;;;;22.80;10.60;;;1.70;65.50;;;;;;5055465;28;20334;-44
2022/01/20 14:42:37;;;;;;;25.02;9.57;;;1.70;65.70;;;;;;5055280;28;20029;-44
2022/01/20 14:45:04;;;;;;;23.65;10.73;;;1.70;65.80;;;;;;5054991;28;20063;-44
2022/01/20 14:47:31;;;;;;;18.63;10.10;;;1.60;65.90;;;;;;5055280;28;20104;-41
2022/01/20 14:49:58;;;;;;;21.05;10.75;;;1.60;66.00;;;;;;5054543;28;20040;-41
2022/01/20 14:52:24;;;;;;;22.63;10.80;;;1.50;66.10;;;;;;5055302;28;20127;-44
2022/01/20 14:54:49;;;;;;;20.92;10.18;;;1.50;66.20;;;;;;5054805;28;20467;-44
2022/01/20 14:57:15;;;;;;;20.92;10.40;;;1.50;66.90;;;;;;5055315;28;20110;-44
2022/01/20 14:59:41;;;;;;;19.73;9.95;;;1.50;66.40;;;;;;5054705;28;20341;-44
2022/01/20 15:02:06;;;;;;;25.63;11.00;;;1.40;66.50;;;;;;5055021;28;20033;-38
2022/01/20 15:04:32;;;;;;;29.10;10.73;;;1.40;66.60;;;;;;5054713;28;20057;-39
2022/01/20 15:06:58;;;;;;;29.02;11.75;;;1.40;66.70;;;;;;5055317;28;20122;-44
2022/01/20 15:09:23;;;;;;;30.85;12.68;;;1.40;66.80;;;;;;5055109;28;20061;-38
2022/01/20 15:11:50;;;;;;;31.35;12.27;;;1.30;66.80;;;;;;5055011;28;20406;-44
2022/01/20 15:14:15;;;;;;;27.55;11.63;;;1.30;66.80;;;;;;5055266;28;20037;-38
2022/01/20 15:16:41;;;;;;;24.38;11.15;;;1.30;66.90;;;;;;5055141;28;20027;-44
2022/01/20 15:19:09;;;;;;;23.92;11.15;;;1.30;67.00;;;;;;5055615;28;20033;-44
2022/01/20 15:21:35;;;;;;;25.27;10.20;;;1.30;67.20;;;;;;5054743;28;20106;-37
2022/01/20 15:24:01;;;;;;;23.48;9.98;;;1.30;67.20;;;;;;5055245;28;20039;-39
2022/01/20 15:26:27;;;;;;;33.72;12.95;;;1.30;67.30;;;;;;5056900;28;20037;-44
2022/01/20 15:28:58;;;;;;;20.05;10.15;;;1.20;67.30;;;;;;5059348;28;20033;-36
2022/01/20 15:31:25;;;;;;;27.50;12.60;;;1.30;67.30;;;;;;5058560;28;20059;-36
2022/01/20 15:33:51;;;;;;;27.10;10.93;;;1.20;67.30;;;;;;5059064;28;20033;-38
2022/01/20 15:36:17;;;;;;;30.42;13.75;;;1.20;67.40;;;;;;5058638;28;20032;-44
2022/01/20 15:38:43;;;;;;;27.23;12.05;;;1.20;67.50;;;;;;5059033;28;20033;-36
2022/01/20 15:41:08;;;;;;;24.45;11.82;;;1.20;67.60;;;;;;5058400;28;20086;-44
2022/01/20 15:43:34;;;;;;;22.67;10.38;;;1.10;67.70;;;;;;5057742;28;20043;-40
2022/01/20 15:46:01;;;;;;;23.92;11.60;;;1.10;67.70;;;;;;5058024;28;20064;-44
2022/01/20 15:48:28;;;;;;;21.40;11.77;;;1.10;67.80;;;;;;5058763;28;20033;-44
2022/01/20 15:50:53;;;;;;;23.70;11.13;;;1.10;67.80;;;;;;5058553;28;20021;-44
2022/01/20 15:53:19;;;;;;;23.70;10.60;;;1.10;67.90;;;;;;5056446;28;20041;-36
2022/01/20 15:55:45;;;;;;;21.00;10.88;;;1.10;68.00;;;;;;5058155;28;20025;-36
2022/01/20 15:58:13;;;;;;;24.58;11.70;;;1.10;68.10;;;;;;5058068;28;20175;-37
2022/01/20 16:00:38;;;;;;;29.70;13.98;;;1.10;68.20;;;;;;5058062;28;20413;-44
2022/01/20 16:03:05;;;;;;;26.30;12.75;;;1.10;68.30;;;;;;5058638;28;20072;-39
2022/01/20 16:05:32;;;;;;;34.55;16.38;;;1.10;68.50;;;;;;5057912;28;20045;-39
2022/01/20 16:07:58;;;;;;;37.97;17.77;;;1.00;68.50;;;;;;5058250;28;20067;-44
2022/01/20 16:10:25;;;;;;;44.80;20.63;;;1.00;68.70;;;;;;5058254;28;20100;-37
2022/01/20 16:12:50;;;;;;;48.05;21.58;;;1.00;68.70;;;;;;5058180;28;20103;-44
2022/01/20 16:15:16;;;;;;;34.90;16.58;;;0.90;68.60;;;;;;5058397;28;20037;-44
2022/01/20 16:17:42;;;;;;;32.83;15.50;;;0.90;68.70;;;;;;5057267;28;20064;-37
2022/01/20 16:20:10;;;;;;;37.22;17.08;;;0.90;68.70;;;;;;5057304;28;20071;-44
2022/01/20 16:22:36;;;;;;;27.88;14.55;;;0.90;68.70;;;;;;5057955;28;20337;-37
2022/01/20 16:25:05;;;;;;;33.03;15.93;;;0.90;68.80;;;;;;5056575;28;20029;-35
2022/01/20 16:27:31;;;;;;;31.67;15.48;;;0.90;68.80;;;;;;5058025;28;20022;-37
2022/01/20 16:29:57;;;;;;;29.50;14.02;;;0.90;68.80;;;;;;5058022;28;20116;-37
2022/01/20 16:32:23;;;;;;;29.77;14.90;;;1.00;68.90;;;;;;5057810;28;20061;-35
2022/01/20 16:34:49;;;;;;;29.48;14.45;;;1.00;68.70;;;;;;5057743;28;20053;-35
2022/01/20 16:37:14;;;;;;;33.95;15.00;;;1.00;68.60;;;;;;5057035;28;20052;-36
2022/01/20 16:39:40;;;;;;;31.73;13.60;;;0.90;68.50;;;;;;5057983;28;20120;-35
2022/01/20 16:42:06;;;;;;;31.90;14.60;;;0.90;68.50;;;;;;5057661;28;20441;-33
2022/01/20 16:44:32;;;;;;;31.58;15.68;;;0.90;68.60;;;;;;5057666;28;20029;-37
2022/01/20 16:46:59;;;;;;;29.90;15.18;;;0.90;68.50;;;;;;5057392;28;20029;-36
2022/01/20 16:49:25;;;;;;;27.70;15.07;;;0.90;68.60;;;;;;5057286;28;20029;-33
2022/01/20 16:51:52;;;;;;;31.83;14.27;;;0.90;68.70;;;;;;5057478;28;20021;-33
2022/01/20 16:54:18;;;;;;;31.77;14.77;;;0.90;68.70;;;;;;5057467;28;20029;-35
2022/01/20 16:56:44;;;;;;;28.85;14.15;;;0.90;68.60;;;;;;5057670;28;20033;-34
2022/01/20 16:59:09;;;;;;;25.27;13.25;;;0.90;68.70;;;;;;5057807;28;20108;-35
2022/01/20 17:01:35;;;;;;;28.33;13.85;;;0.90;68.70;;;;;;5057577;28;20029;-36
2022/01/20 17:04:01;;;;;;;25.42;12.75;;;0.90;68.60;;;;;;5057035;28;20052;-33
2022/01/20 17:06:27;;;;;;;27.88;14.30;;;0.90;68.50;;;;;;5057071;28;20309;-38
2022/01/20 17:08:52;;;;;;;27.38;13.27;;;0.90;68.60;;;;;;5057206;28;20481;-36
2022/01/20 17:11:18;;;;;;;24.48;12.30;;;0.90;68.60;;;;;;5056886;28;20413;-34
2022/01/20 17:13:44;;;;;;;22.20;12.25;;;1.00;68.60;;;;;;5057475;28;20033;-39
2022/01/20 17:16:10;;;;;;;24.52;13.00;;;0.90;68.50;;;;;;5057102;28;20025;-40
2022/01/20 17:18:36;;;;;;;23.58;9.95;;;1.00;68.60;;;;;;5057364;28;20413;-39
2022/01/20 17:21:02;;;;;;;18.83;10.50;;;1.00;68.50;;;;;;5057160;28;20322;-39
2022/01/20 17:23:31;;;;;;;20.25;10.65;;;1.00;68.50;;;;;;5057415;28;20423;-38
2022/01/20 17:25:58;;;;;;;25.05;11.98;;;1.10;68.50;;;;;;5056609;28;20035;-38
2022/01/20 17:28:24;;;;;;;30.52;14.27;;;1.10;68.40;;;;;;5057538;28;20033;-38
2022/01/20 17:30:51;;;;;;;28.23;14.35;;;1.10;68.40;;;;;;5056267;28;20398;-39
2022/01/20 17:33:17;;;;;;;26.80;13.48;;;1.10;68.50;;;;;;5056519;28;20033;-33
2022/01/20 17:35:43;;;;;;;27.33;13.73;;;1.10;68.50;;;;;;5056798;28;20021;-36
2022/01/20 17:38:09;;;;;;;26.88;12.98;;;1.20;68.50;;;;;;5056667;28;20101;-38
2022/01/20 17:40:36;;;;;;;22.13;11.70;;;1.20;68.50;;;;;;5056327;28;20447;-34
2022/01/20 17:43:02;;;;;;;21.05;11.13;;;1.20;68.40;;;;;;5056562;28;20455;-39
2022/01/20 17:45:28;;;;;;;18.98;10.60;;;1.20;68.40;;;;;;5055994;28;20041;-40
2022/01/20 17:47:54;;;;;;;21.55;10.38;;;1.20;68.40;;;;;;5055648;28;20051;-34
2022/01/20 17:50:21;;;;;;;17.58;9.52;;;1.20;68.40;;;;;;5055124;28;20421;-35
2022/01/20 17:52:49;;;;;;;17.35;10.15;;;1.30;68.50;;;;;;5056603;28;20053;-36
2022/01/20 17:55:16;;;;;;;22.58;11.00;;;1.30;68.50;;;;;;5056530;28;20043;-34
2022/01/20 17:57:42;;;;;;;19.85;10.80;;;1.40;68.40;;;;;;5056794;28;20064;-39
2022/01/20 18:00:11;;;;;;;21.25;10.65;;;1.40;68.30;;;;;;5056683;28;20037;-38
2022/01/20 18:02:40;;;;;;;18.95;10.45;;;1.40;68.20;;;;;;5056748;28;20325;-38
2022/01/20 18:05:06;;;;;;;20.85;10.52;;;1.50;68.20;;;;;;5055441;28;20073;-40
2022/01/20 18:07:32;;;;;;;23.17;11.55;;;1.50;68.10;;;;;;5055960;28;20028;-34
2022/01/20 18:09:57;;;;;;;20.65;10.50;;;1.50;68.10;;;;;;5056243;28;20040;-39
2022/01/20 18:12:23;;;;;;;22.00;10.70;;;1.50;68.10;;;;;;5056156;28;20410;-40
2022/01/20 18:14:49;;;;;;;21.55;11.20;;;1.50;68.10;;;;;;5055849;28;20044;-36
2022/01/20 18:17:15;;;;;;;22.80;11.25;;;1.50;68.10;;;;;;5056478;28;20033;-40
2022/01/20 18:19:40;;;;;;;23.27;10.32;;;1.50;68.20;;;;;;5056235;28;20049;-35
2022/01/20 18:22:06;;;;;;;21.10;11.15;;;1.50;68.10;;;;;;5056251;28;20295;-40
2022/01/20 18:24:32;;;;;;;23.60;11.10;;;1.50;68.20;;;;;;5056131;28;20032;-39
2022/01/20 18:26:58;;;;;;;20.63;11.35;;;1.50;68.30;;;;;;5055765;28;20075;-34
2022/01/20 18:29:24;;;;;;;26.45;13.57;;;1.50;68.20;;;;;;5056061;28;20057;-38
2022/01/20 18:31:51;;;;;;;28.20;13.45;;;1.50;68.10;;;;;;5056270;28;20052;-34
2022/01/20 18:34:18;;;;;;;31.15;13.98;;;1.50;68.10;;;;;;5056142;28;20112;-35
2022/01/20 18:36:45;;;;;;;26.75;13.55;;;1.50;68.00;;;;;;5055984;28;20158;-34
2022/01/20 18:39:11;;;;;;;26.30;12.65;;;1.50;68.10;;;;;;5056109;28;20044;-36
2022/01/20 18:41:38;;;;;;;28.70;13.90;;;1.50;68.10;;;;;;5056069;28;20067;-41
2022/01/20 18:44:04;;;;;;;29.05;14.75;;;1.50;68.20;;;;;;5055889;28;20036;-34
2022/01/20 18:46:29;;;;;;;25.00;13.95;;;1.50;68.20;;;;;;5055497;28;20040;-36
2022/01/20 18:48:55;;;;;;;25.80;13.15;;;1.50;68.20;;;;;;5055973;28;20033;-34
2022/01/20 18:51:21;;;;;;;28.08;13.88;;;1.50;68.30;;;;;;5055437;28;20320;-35